sensor_id;sensor_type;location;lat;lon;timestamp;P1;durP1;ratioP1;P2;durP2;ratioP2
56507;SDS011;42403;53.160;6.368;2022-11-15T00:06:03;561.67;;;431.43;;
56507;SDS011;42403;53.160;6.368;2022-11-15T00:08:31;562.45;;;430.00;;
56507;SDS011;42403;53.160;6.368;2022-11-15T00:10:58;559.97;;;424.70;;
56507;SDS011;42403;53.160;6.368;2022-11-15T00:13:24;559.35;;;423.48;;
56507;SDS011;42403;53.160;6.368;2022-11-15T00:15:50;560.67;;;425.00;;
56507;SDS011;42403;53.160;6.368;2022-11-15T00:18:16;561.28;;;422.90;;
56507;SDS011;42403;53.160;6.368;2022-11-15T00:20:42;560.95;;;420.48;;
56507;SDS011;42403;53.160;6.368;2022-11-15T00:23:08;569.95;;;449.20;;
56507;SDS011;42403;53.160;6.368;2022-11-15T00:25:35;558.42;;;416.88;;
56507;SDS011;42403;53.160;6.368;2022-11-15T00:28:01;563.77;;;427.30;;
56507;SDS011;42403;53.160;6.368;2022-11-15T00:30:27;561.13;;;424.30;;
56507;SDS011;42403;53.160;6.368;2022-11-15T00:32:53;564.47;;;436.40;;
56507;SDS011;42403;53.160;6.368;2022-11-15T00:35:20;568.67;;;448.40;;
56507;SDS011;42403;53.160;6.368;2022-11-15T00:37:46;567.30;;;445.67;;
56507;SDS011;42403;53.160;6.368;2022-11-15T00:40:12;557.75;;;414.08;;
56507;SDS011;42403;53.160;6.368;2022-11-15T00:42:39;561.30;;;423.67;;
56507;SDS011;42403;53.160;6.368;2022-11-15T00:45:05;560.08;;;421.55;;
56507;SDS011;42403;53.160;6.368;2022-11-15T00:47:31;559.30;;;420.35;;
56507;SDS011;42403;53.160;6.368;2022-11-15T00:49:57;558.53;;;416.50;;
56507;SDS011;42403;53.160;6.368;2022-11-15T00:52:23;562.42;;;425.85;;
56507;SDS011;42403;53.160;6.368;2022-11-15T00:54:49;563.63;;;430.95;;
56507;SDS011;42403;53.160;6.368;2022-11-15T00:57:15;561.30;;;421.65;;
56507;SDS011;42403;53.160;6.368;2022-11-15T00:59:41;559.33;;;420.27;;
56507;SDS011;42403;53.160;6.368;2022-11-15T01:02:07;562.03;;;424.25;;
56507;SDS011;42403;53.160;6.368;2022-11-15T01:04:33;561.17;;;423.07;;
56507;SDS011;42403;53.160;6.368;2022-11-15T01:07:00;561.33;;;424.95;;
56507;SDS011;42403;53.160;6.368;2022-11-15T01:09:26;561.28;;;423.70;;
56507;SDS011;42403;53.160;6.368;2022-11-15T01:11:52;561.15;;;424.35;;
56507;SDS011;42403;53.160;6.368;2022-11-15T01:14:18;560.78;;;421.23;;
56507;SDS011;42403;53.160;6.368;2022-11-15T01:16:44;562.00;;;426.52;;
56507;SDS011;42403;53.160;6.368;2022-11-15T01:19:10;561.85;;;425.38;;
56507;SDS011;42403;53.160;6.368;2022-11-15T01:21:36;562.90;;;427.20;;
56507;SDS011;42403;53.160;6.368;2022-11-15T01:24:02;560.53;;;420.40;;
56507;SDS011;42403;53.160;6.368;2022-11-15T01:26:28;559.58;;;415.85;;
56507;SDS011;42403;53.160;6.368;2022-11-15T01:28:54;559.30;;;419.63;;
56507;SDS011;42403;53.160;6.368;2022-11-15T01:31:20;562.03;;;422.13;;
56507;SDS011;42403;53.160;6.368;2022-11-15T01:33:47;561.15;;;421.45;;
56507;SDS011;42403;53.160;6.368;2022-11-15T01:36:15;560.75;;;418.85;;
56507;SDS011;42403;53.160;6.368;2022-11-15T01:38:41;559.53;;;415.37;;
56507;SDS011;42403;53.160;6.368;2022-11-15T01:41:14;557.80;;;412.42;;
56507;SDS011;42403;53.160;6.368;2022-11-15T01:43:40;557.45;;;409.80;;
56507;SDS011;42403;53.160;6.368;2022-11-15T01:46:13;560.60;;;412.73;;
56507;SDS011;42403;53.160;6.368;2022-11-15T01:48:43;559.33;;;409.67;;
56507;SDS011;42403;53.160;6.368;2022-11-15T01:51:10;557.83;;;406.50;;
56507;SDS011;42403;53.160;6.368;2022-11-15T01:53:38;556.45;;;399.90;;
56507;SDS011;42403;53.160;6.368;2022-11-15T01:56:06;557.58;;;404.98;;
56507;SDS011;42403;53.160;6.368;2022-11-15T01:58:33;555.72;;;401.60;;
56507;SDS011;42403;53.160;6.368;2022-11-15T02:01:00;559.42;;;409.70;;
56507;SDS011;42403;53.160;6.368;2022-11-15T02:03:26;558.20;;;405.20;;
56507;SDS011;42403;53.160;6.368;2022-11-15T02:05:56;558.33;;;405.38;;
56507;SDS011;42403;53.160;6.368;2022-11-15T02:08:23;557.03;;;402.43;;
56507;SDS011;42403;53.160;6.368;2022-11-15T02:10:49;557.88;;;403.40;;
56507;SDS011;42403;53.160;6.368;2022-11-15T02:13:15;560.78;;;408.50;;
56507;SDS011;42403;53.160;6.368;2022-11-15T02:15:55;558.15;;;403.55;;
56507;SDS011;42403;53.160;6.368;2022-11-15T02:18:34;556.73;;;403.47;;
56507;SDS011;42403;53.160;6.368;2022-11-15T02:21:26;558.65;;;403.52;;
56507;SDS011;42403;53.160;6.368;2022-11-15T02:23:57;557.13;;;402.35;;
56507;SDS011;42403;53.160;6.368;2022-11-15T02:31:59;557.38;;;406.00;;
56507;SDS011;42403;53.160;6.368;2022-11-15T02:37:03;558.40;;;410.02;;
56507;SDS011;42403;53.160;6.368;2022-11-15T02:39:36;556.42;;;406.95;;
56507;SDS011;42403;53.160;6.368;2022-11-15T02:42:13;558.00;;;409.52;;
56507;SDS011;42403;53.160;6.368;2022-11-15T02:45:00;556.25;;;407.63;;
56507;SDS011;42403;53.160;6.368;2022-11-15T02:47:29;555.33;;;404.30;;
56507;SDS011;42403;53.160;6.368;2022-11-15T02:49:59;555.97;;;407.40;;
56507;SDS011;42403;53.160;6.368;2022-11-15T02:52:26;555.45;;;405.80;;
56507;SDS011;42403;53.160;6.368;2022-11-15T02:54:56;557.10;;;414.13;;
56507;SDS011;42403;53.160;6.368;2022-11-15T02:57:30;555.65;;;406.52;;
56507;SDS011;42403;53.160;6.368;2022-11-15T03:00:01;555.63;;;409.35;;
56507;SDS011;42403;53.160;6.368;2022-11-15T03:10:19;558.30;;;415.55;;
56507;SDS011;42403;53.160;6.368;2022-11-15T03:12:51;557.00;;;408.90;;
56507;SDS011;42403;53.160;6.368;2022-11-15T03:15:18;559.90;;;419.10;;
56507;SDS011;42403;53.160;6.368;2022-11-15T03:17:55;556.03;;;404.45;;
56507;SDS011;42403;53.160;6.368;2022-11-15T03:20:23;557.45;;;411.52;;
56507;SDS011;42403;53.160;6.368;2022-11-15T03:22:50;556.92;;;408.75;;
56507;SDS011;42403;53.160;6.368;2022-11-15T03:25:17;555.83;;;406.63;;
56507;SDS011;42403;53.160;6.368;2022-11-15T03:27:46;555.60;;;407.65;;
56507;SDS011;42403;53.160;6.368;2022-11-15T03:30:14;557.40;;;409.75;;
56507;SDS011;42403;53.160;6.368;2022-11-15T03:32:42;558.08;;;413.50;;
56507;SDS011;42403;53.160;6.368;2022-11-15T03:35:11;557.03;;;422.23;;
56507;SDS011;42403;53.160;6.368;2022-11-15T03:37:44;557.97;;;411.20;;
56507;SDS011;42403;53.160;6.368;2022-11-15T03:40:12;555.88;;;402.23;;
56507;SDS011;42403;53.160;6.368;2022-11-15T03:42:42;557.47;;;409.43;;
56507;SDS011;42403;53.160;6.368;2022-11-15T03:45:16;558.47;;;412.50;;
56507;SDS011;42403;53.160;6.368;2022-11-15T03:47:45;555.10;;;403.77;;
56507;SDS011;42403;53.160;6.368;2022-11-15T03:50:14;556.33;;;406.75;;
56507;SDS011;42403;53.160;6.368;2022-11-15T03:52:41;557.70;;;410.45;;
56507;SDS011;42403;53.160;6.368;2022-11-15T03:55:10;557.35;;;411.40;;
56507;SDS011;42403;53.160;6.368;2022-11-15T03:57:37;555.70;;;407.25;;
56507;SDS011;42403;53.160;6.368;2022-11-15T04:00:03;559.07;;;415.13;;
56507;SDS011;42403;53.160;6.368;2022-11-15T04:02:30;558.47;;;412.88;;
56507;SDS011;42403;53.160;6.368;2022-11-15T04:04:56;558.67;;;413.88;;
56507;SDS011;42403;53.160;6.368;2022-11-15T04:07:22;557.47;;;414.10;;
56507;SDS011;42403;53.160;6.368;2022-11-15T04:09:48;558.13;;;415.77;;
56507;SDS011;42403;53.160;6.368;2022-11-15T04:15:00;558.30;;;417.60;;
56507;SDS011;42403;53.160;6.368;2022-11-15T04:17:32;559.80;;;420.25;;
56507;SDS011;42403;53.160;6.368;2022-11-15T04:19:58;558.90;;;418.90;;
56507;SDS011;42403;53.160;6.368;2022-11-15T04:22:43;560.25;;;420.73;;
56507;SDS011;42403;53.160;6.368;2022-11-15T04:25:28;557.83;;;417.48;;
56507;SDS011;42403;53.160;6.368;2022-11-15T04:27:54;559.40;;;420.88;;
56507;SDS011;42403;53.160;6.368;2022-11-15T04:30:20;560.97;;;424.75;;
56507;SDS011;42403;53.160;6.368;2022-11-15T04:32:46;562.88;;;421.95;;
56507;SDS011;42403;53.160;6.368;2022-11-15T04:35:12;559.00;;;419.58;;
56507;SDS011;42403;53.160;6.368;2022-11-15T04:37:38;560.78;;;421.67;;
56507;SDS011;42403;53.160;6.368;2022-11-15T04:40:04;561.53;;;427.67;;
56507;SDS011;42403;53.160;6.368;2022-11-15T04:42:30;558.50;;;420.67;;
56507;SDS011;42403;53.160;6.368;2022-11-15T04:44:56;561.70;;;429.70;;
56507;SDS011;42403;53.160;6.368;2022-11-15T04:47:22;561.88;;;429.00;;
56507;SDS011;42403;53.160;6.368;2022-11-15T04:49:48;560.58;;;425.63;;
56507;SDS011;42403;53.160;6.368;2022-11-15T04:52:14;561.63;;;426.13;;
56507;SDS011;42403;53.160;6.368;2022-11-15T04:54:40;560.28;;;425.30;;
56507;SDS011;42403;53.160;6.368;2022-11-15T04:57:07;559.90;;;426.35;;
56507;SDS011;42403;53.160;6.368;2022-11-15T04:59:33;560.17;;;424.27;;
56507;SDS011;42403;53.160;6.368;2022-11-15T05:01:59;560.42;;;426.38;;
56507;SDS011;42403;53.160;6.368;2022-11-15T05:04:26;561.28;;;426.10;;
56507;SDS011;42403;53.160;6.368;2022-11-15T05:06:52;559.75;;;426.45;;
56507;SDS011;42403;53.160;6.368;2022-11-15T05:09:18;561.45;;;430.02;;
56507;SDS011;42403;53.160;6.368;2022-11-15T05:11:44;561.28;;;431.45;;
56507;SDS011;42403;53.160;6.368;2022-11-15T05:14:11;561.72;;;430.85;;
56507;SDS011;42403;53.160;6.368;2022-11-15T05:16:37;559.53;;;426.80;;
56507;SDS011;42403;53.160;6.368;2022-11-15T05:19:03;560.22;;;427.50;;
56507;SDS011;42403;53.160;6.368;2022-11-15T05:21:30;560.03;;;428.70;;
56507;SDS011;42403;53.160;6.368;2022-11-15T05:23:56;560.33;;;427.15;;
56507;SDS011;42403;53.160;6.368;2022-11-15T05:26:22;561.67;;;428.42;;
56507;SDS011;42403;53.160;6.368;2022-11-15T05:28:54;559.60;;;426.60;;
56507;SDS011;42403;53.160;6.368;2022-11-15T05:31:20;559.70;;;427.92;;
56507;SDS011;42403;53.160;6.368;2022-11-15T05:33:46;562.42;;;432.10;;
56507;SDS011;42403;53.160;6.368;2022-11-15T05:36:25;563.63;;;442.00;;
56507;SDS011;42403;53.160;6.368;2022-11-15T05:38:52;561.55;;;434.77;;
56507;SDS011;42403;53.160;6.368;2022-11-15T05:41:19;571.28;;;474.30;;
56507;SDS011;42403;53.160;6.368;2022-11-15T05:43:46;561.67;;;436.77;;
56507;SDS011;42403;53.160;6.368;2022-11-15T05:46:13;562.78;;;442.25;;
56507;SDS011;42403;53.160;6.368;2022-11-15T05:48:40;562.97;;;443.60;;
56507;SDS011;42403;53.160;6.368;2022-11-15T05:51:07;561.45;;;446.13;;
56507;SDS011;42403;53.160;6.368;2022-11-15T05:53:33;568.90;;;463.20;;
56507;SDS011;42403;53.160;6.368;2022-11-15T05:56:00;570.47;;;466.90;;
56507;SDS011;42403;53.160;6.368;2022-11-15T05:58:27;568.75;;;509.33;;
56507;SDS011;42403;53.160;6.368;2022-11-15T06:00:53;578.75;;;523.13;;
56507;SDS011;42403;53.160;6.368;2022-11-15T06:03:19;577.00;;;520.13;;
56507;SDS011;42403;53.160;6.368;2022-11-15T06:05:46;586.88;;;534.85;;
56507;SDS011;42403;53.160;6.368;2022-11-15T06:08:12;571.30;;;512.05;;
56507;SDS011;42403;53.160;6.368;2022-11-15T06:10:38;576.58;;;492.35;;
56507;SDS011;42403;53.160;6.368;2022-11-15T06:13:04;566.75;;;460.30;;
56507;SDS011;42403;53.160;6.368;2022-11-15T06:15:31;568.05;;;461.40;;
56507;SDS011;42403;53.160;6.368;2022-11-15T06:17:58;567.15;;;461.17;;
56507;SDS011;42403;53.160;6.368;2022-11-15T06:20:25;566.05;;;459.70;;
56507;SDS011;42403;53.160;6.368;2022-11-15T06:22:55;568.97;;;463.35;;
56507;SDS011;42403;53.160;6.368;2022-11-15T06:25:21;566.30;;;460.20;;
56507;SDS011;42403;53.160;6.368;2022-11-15T06:27:51;567.53;;;464.00;;
56507;SDS011;42403;53.160;6.368;2022-11-15T06:30:17;567.00;;;462.52;;
56507;SDS011;42403;53.160;6.368;2022-11-15T06:32:43;570.97;;;471.50;;
56507;SDS011;42403;53.160;6.368;2022-11-15T06:35:09;567.13;;;464.85;;
56507;SDS011;42403;53.160;6.368;2022-11-15T06:37:35;568.30;;;466.67;;
56507;SDS011;42403;53.160;6.368;2022-11-15T06:40:01;569.33;;;470.42;;
56507;SDS011;42403;53.160;6.368;2022-11-15T06:42:27;569.78;;;471.40;;
56507;SDS011;42403;53.160;6.368;2022-11-15T06:44:53;569.85;;;472.52;;
56507;SDS011;42403;53.160;6.368;2022-11-15T06:47:19;570.58;;;476.92;;
56507;SDS011;42403;53.160;6.368;2022-11-15T06:49:46;571.20;;;476.08;;
56507;SDS011;42403;53.160;6.368;2022-11-15T06:52:12;569.80;;;475.95;;
56507;SDS011;42403;53.160;6.368;2022-11-15T06:54:38;575.28;;;476.50;;
56507;SDS011;42403;53.160;6.368;2022-11-15T06:57:04;572.17;;;483.07;;
56507;SDS011;42403;53.160;6.368;2022-11-15T06:59:30;570.75;;;483.38;;
56507;SDS011;42403;53.160;6.368;2022-11-15T07:01:56;573.53;;;485.80;;
56507;SDS011;42403;53.160;6.368;2022-11-15T07:04:22;573.22;;;488.92;;
56507;SDS011;42403;53.160;6.368;2022-11-15T07:06:48;572.13;;;489.03;;
56507;SDS011;42403;53.160;6.368;2022-11-15T07:09:14;574.97;;;496.27;;
56507;SDS011;42403;53.160;6.368;2022-11-15T07:11:40;574.67;;;493.33;;
56507;SDS011;42403;53.160;6.368;2022-11-15T07:14:06;573.75;;;497.80;;
56507;SDS011;42403;53.160;6.368;2022-11-15T07:16:32;575.28;;;496.30;;
56507;SDS011;42403;53.160;6.368;2022-11-15T07:18:58;575.87;;;501.97;;
56507;SDS011;42403;53.160;6.368;2022-11-15T07:21:24;576.38;;;503.33;;
56507;SDS011;42403;53.160;6.368;2022-11-15T07:23:50;574.15;;;496.50;;
56507;SDS011;42403;53.160;6.368;2022-11-15T07:26:16;576.40;;;502.17;;
56507;SDS011;42403;53.160;6.368;2022-11-15T07:28:42;573.95;;;498.50;;
56507;SDS011;42403;53.160;6.368;2022-11-15T07:31:08;574.05;;;498.00;;
56507;SDS011;42403;53.160;6.368;2022-11-15T07:33:35;576.78;;;503.70;;
56507;SDS011;42403;53.160;6.368;2022-11-15T07:36:02;576.38;;;505.15;;
56507;SDS011;42403;53.160;6.368;2022-11-15T07:38:28;576.10;;;507.55;;
56507;SDS011;42403;53.160;6.368;2022-11-15T07:41:01;577.33;;;512.90;;
56507;SDS011;42403;53.160;6.368;2022-11-15T07:43:27;579.47;;;515.27;;
56507;SDS011;42403;53.160;6.368;2022-11-15T07:45:54;579.42;;;515.22;;
56507;SDS011;42403;53.160;6.368;2022-11-15T07:48:21;578.90;;;513.13;;
56507;SDS011;42403;53.160;6.368;2022-11-15T07:50:48;581.00;;;516.80;;
56507;SDS011;42403;53.160;6.368;2022-11-15T07:53:14;577.33;;;512.25;;
56507;SDS011;42403;53.160;6.368;2022-11-15T07:55:40;585.58;;;521.00;;
56507;SDS011;42403;53.160;6.368;2022-11-15T07:58:10;586.28;;;521.78;;
56507;SDS011;42403;53.160;6.368;2022-11-15T08:00:36;585.72;;;521.33;;
56507;SDS011;42403;53.160;6.368;2022-11-15T08:03:07;590.03;;;525.53;;
56507;SDS011;42403;53.160;6.368;2022-11-15T08:05:34;591.03;;;526.42;;
56507;SDS011;42403;53.160;6.368;2022-11-15T08:08:00;584.53;;;520.15;;
56507;SDS011;42403;53.160;6.368;2022-11-15T08:10:27;591.85;;;527.30;;
56507;SDS011;42403;53.160;6.368;2022-11-15T08:12:57;598.70;;;533.78;;
56507;SDS011;42403;53.160;6.368;2022-11-15T08:15:23;591.72;;;527.22;;
56507;SDS011;42403;53.160;6.368;2022-11-15T08:17:53;593.83;;;529.17;;
56507;SDS011;42403;53.160;6.368;2022-11-15T08:20:19;599.90;;;535.10;;
56507;SDS011;42403;53.160;6.368;2022-11-15T08:22:45;601.45;;;536.65;;
56507;SDS011;42403;53.160;6.368;2022-11-15T08:25:11;596.88;;;532.28;;
56507;SDS011;42403;53.160;6.368;2022-11-15T08:27:38;603.47;;;538.57;;
56507;SDS011;42403;53.160;6.368;2022-11-15T08:30:04;607.08;;;542.13;;
56507;SDS011;42403;53.160;6.368;2022-11-15T08:32:30;605.42;;;540.53;;
56507;SDS011;42403;53.160;6.368;2022-11-15T08:34:56;613.65;;;548.45;;
56507;SDS011;42403;53.160;6.368;2022-11-15T08:37:22;614.53;;;549.33;;
56507;SDS011;42403;53.160;6.368;2022-11-15T08:39:48;615.53;;;550.30;;
56507;SDS011;42403;53.160;6.368;2022-11-15T08:42:14;611.00;;;546.00;;
56507;SDS011;42403;53.160;6.368;2022-11-15T08:44:41;618.67;;;553.47;;
56507;SDS011;42403;53.160;6.368;2022-11-15T08:47:07;614.80;;;549.75;;
56507;SDS011;42403;53.160;6.368;2022-11-15T08:49:37;620.80;;;555.60;;
56507;SDS011;42403;53.160;6.368;2022-11-15T08:52:03;618.63;;;553.40;;
56507;SDS011;42403;53.160;6.368;2022-11-15T08:54:29;623.45;;;558.15;;
56507;SDS011;42403;53.160;6.368;2022-11-15T08:56:55;621.70;;;556.50;;
56507;SDS011;42403;53.160;6.368;2022-11-15T08:59:21;623.93;;;558.73;;
56507;SDS011;42403;53.160;6.368;2022-11-15T09:01:48;630.90;;;565.40;;
56507;SDS011;42403;53.160;6.368;2022-11-15T09:04:14;634.53;;;568.83;;
56507;SDS011;42403;53.160;6.368;2022-11-15T09:06:40;623.13;;;557.92;;
56507;SDS011;42403;53.160;6.368;2022-11-15T09:09:06;624.97;;;559.67;;
56507;SDS011;42403;53.160;6.368;2022-11-15T09:11:32;621.08;;;555.92;;
56507;SDS011;42403;53.160;6.368;2022-11-15T09:13:58;624.03;;;558.75;;
56507;SDS011;42403;53.160;6.368;2022-11-15T09:16:24;622.43;;;557.27;;
56507;SDS011;42403;53.160;6.368;2022-11-15T09:18:50;630.50;;;564.97;;
56507;SDS011;42403;53.160;6.368;2022-11-15T09:21:16;634.13;;;568.42;;
56507;SDS011;42403;53.160;6.368;2022-11-15T09:23:42;630.97;;;565.50;;
56507;SDS011;42403;53.160;6.368;2022-11-15T09:26:08;634.95;;;569.53;;
56507;SDS011;42403;53.160;6.368;2022-11-15T09:28:34;634.83;;;569.33;;
56507;SDS011;42403;53.160;6.368;2022-11-15T09:31:05;638.28;;;572.58;;
56507;SDS011;42403;53.160;6.368;2022-11-15T09:33:31;638.20;;;572.60;;
56507;SDS011;42403;53.160;6.368;2022-11-15T09:36:01;636.27;;;570.77;;
56507;SDS011;42403;53.160;6.368;2022-11-15T09:38:27;638.47;;;572.92;;
56507;SDS011;42403;53.160;6.368;2022-11-15T09:40:57;635.45;;;570.05;;
56507;SDS011;42403;53.160;6.368;2022-11-15T09:46:07;642.10;;;576.33;;
56507;SDS011;42403;53.160;6.368;2022-11-15T09:48:47;634.83;;;569.33;;
56507;SDS011;42403;53.160;6.368;2022-11-15T09:51:18;641.40;;;575.67;;
56507;SDS011;42403;53.160;6.368;2022-11-15T09:53:52;639.17;;;573.57;;
56507;SDS011;42403;53.160;6.368;2022-11-15T09:56:22;640.35;;;574.55;;
56507;SDS011;42403;53.160;6.368;2022-11-15T09:58:56;643.72;;;578.10;;
56507;SDS011;42403;53.160;6.368;2022-11-15T10:01:34;653.80;;;587.77;;
56507;SDS011;42403;53.160;6.368;2022-11-15T10:04:02;650.55;;;584.50;;
56507;SDS011;42403;53.160;6.368;2022-11-15T10:06:28;647.33;;;581.53;;
56507;SDS011;42403;53.160;6.368;2022-11-15T10:09:04;649.20;;;583.40;;
56507;SDS011;42403;53.160;6.368;2022-11-15T10:11:32;648.97;;;583.17;;
56507;SDS011;42403;53.160;6.368;2022-11-15T10:14:01;653.85;;;587.75;;
56507;SDS011;42403;53.160;6.368;2022-11-15T10:21:32;656.85;;;590.63;;
56507;SDS011;42403;53.160;6.368;2022-11-15T10:24:00;657.03;;;591.03;;
56507;SDS011;42403;53.160;6.368;2022-11-15T10:26:26;655.65;;;589.65;;
56507;SDS011;42403;53.160;6.368;2022-11-15T10:28:53;659.33;;;593.20;;
56507;SDS011;42403;53.160;6.368;2022-11-15T10:31:23;662.57;;;596.37;;
56507;SDS011;42403;53.160;6.368;2022-11-15T10:33:50;663.85;;;597.63;;
56507;SDS011;42403;53.160;6.368;2022-11-15T10:36:20;667.85;;;601.45;;
56507;SDS011;42403;53.160;6.368;2022-11-15T10:41:14;679.78;;;613.08;;
56507;SDS011;42403;53.160;6.368;2022-11-15T10:43:41;680.22;;;613.55;;
56507;SDS011;42403;53.160;6.368;2022-11-15T10:46:20;683.60;;;616.80;;
56507;SDS011;42403;53.160;6.368;2022-11-15T10:48:46;679.25;;;612.55;;
56507;SDS011;42403;53.160;6.368;2022-11-15T10:51:26;683.47;;;616.60;;
56507;SDS011;42403;53.160;6.368;2022-11-15T10:53:54;682.30;;;615.60;;
56507;SDS011;42403;53.160;6.368;2022-11-15T10:56:21;680.42;;;613.83;;
56507;SDS011;42403;53.160;6.368;2022-11-15T10:58:51;684.53;;;617.72;;
56507;SDS011;42403;53.160;6.368;2022-11-15T11:01:20;681.67;;;615.08;;
56507;SDS011;42403;53.160;6.368;2022-11-15T11:04:06;687.42;;;620.65;;
56507;SDS011;42403;53.160;6.368;2022-11-15T11:06:46;685.53;;;618.72;;
56507;SDS011;42403;53.160;6.368;2022-11-15T11:11:55;687.83;;;621.03;;
56507;SDS011;42403;53.160;6.368;2022-11-15T11:14:25;688.00;;;621.10;;
56507;SDS011;42403;53.160;6.368;2022-11-15T11:32:23;700.00;;;632.70;;
56507;SDS011;42403;53.160;6.368;2022-11-15T11:37:44;700.28;;;633.08;;
56507;SDS011;42403;53.160;6.368;2022-11-15T11:45:22;703.75;;;636.40;;
56507;SDS011;42403;53.160;6.368;2022-11-15T11:48:12;707.47;;;640.08;;
56507;SDS011;42403;53.160;6.368;2022-11-15T11:50:39;708.53;;;640.92;;
56507;SDS011;42403;53.160;6.368;2022-11-15T11:53:12;703.22;;;636.13;;
56507;SDS011;42403;53.160;6.368;2022-11-15T11:55:45;705.90;;;638.50;;
56507;SDS011;42403;53.160;6.368;2022-11-15T12:00:43;706.58;;;639.17;;
56507;SDS011;42403;53.160;6.368;2022-11-15T12:03:21;711.47;;;643.78;;
56507;SDS011;42403;53.160;6.368;2022-11-15T12:05:54;702.90;;;635.60;;
56507;SDS011;42403;53.160;6.368;2022-11-15T12:10:50;705.35;;;638.00;;
56507;SDS011;42403;53.160;6.368;2022-11-15T12:13:19;713.00;;;645.20;;
56507;SDS011;42403;53.160;6.368;2022-11-15T12:15:49;701.83;;;634.65;;
56507;SDS011;42403;53.160;6.368;2022-11-15T12:18:18;700.38;;;633.22;;
56507;SDS011;42403;53.160;6.368;2022-11-15T12:20:51;706.08;;;638.67;;
56507;SDS011;42403;53.160;6.368;2022-11-15T12:23:23;702.67;;;635.47;;
56507;SDS011;42403;53.160;6.368;2022-11-15T12:25:52;702.00;;;634.30;;
56507;SDS011;42403;53.160;6.368;2022-11-15T12:33:34;707.50;;;640.13;;
56507;SDS011;42403;53.160;6.368;2022-11-15T12:36:02;706.15;;;638.75;;
56507;SDS011;42403;53.160;6.368;2022-11-15T12:41:14;709.40;;;642.00;;
56507;SDS011;42403;53.160;6.368;2022-11-15T12:43:42;708.72;;;641.22;;
56507;SDS011;42403;53.160;6.368;2022-11-15T12:46:58;707.53;;;640.17;;
56507;SDS011;42403;53.160;6.368;2022-11-15T13:02:20;712.03;;;644.53;;
56507;SDS011;42403;53.160;6.368;2022-11-15T13:04:47;710.22;;;642.72;;
56507;SDS011;42403;53.160;6.368;2022-11-15T13:09:58;710.13;;;642.55;;
56507;SDS011;42403;53.160;6.368;2022-11-15T13:15:01;710.08;;;642.67;;
56507;SDS011;42403;53.160;6.368;2022-11-15T13:17:34;713.45;;;646.00;;
56507;SDS011;42403;53.160;6.368;2022-11-15T13:20:07;717.17;;;649.58;;
56507;SDS011;42403;53.160;6.368;2022-11-15T13:27:51;714.17;;;646.67;;
56507;SDS011;42403;53.160;6.368;2022-11-15T13:30:29;717.08;;;649.33;;
56507;SDS011;42403;53.160;6.368;2022-11-15T13:32:58;710.78;;;643.33;;
56507;SDS011;42403;53.160;6.368;2022-11-15T13:35:27;721.10;;;653.20;;
56507;SDS011;42403;53.160;6.368;2022-11-15T13:37:54;712.97;;;645.47;;
56507;SDS011;42403;53.160;6.368;2022-11-15T13:40:22;711.03;;;643.53;;
56507;SDS011;42403;53.160;6.368;2022-11-15T13:42:49;703.25;;;636.05;;
56507;SDS011;42403;53.160;6.368;2022-11-15T13:45:16;711.75;;;644.15;;
56507;SDS011;42403;53.160;6.368;2022-11-15T13:47:42;708.22;;;640.78;;
56507;SDS011;42403;53.160;6.368;2022-11-15T13:50:12;712.55;;;645.17;;
56507;SDS011;42403;53.160;6.368;2022-11-15T13:52:39;702.17;;;635.08;;
56507;SDS011;42403;53.160;6.368;2022-11-15T13:57:54;702.40;;;635.20;;
56507;SDS011;42403;53.160;6.368;2022-11-15T14:00:25;704.88;;;637.67;;
56507;SDS011;42403;53.160;6.368;2022-11-15T14:02:52;701.55;;;634.28;;
56507;SDS011;42403;53.160;6.368;2022-11-15T14:05:24;699.17;;;632.17;;
56507;SDS011;42403;53.160;6.368;2022-11-15T14:07:54;697.22;;;630.33;;
56507;SDS011;42403;53.160;6.368;2022-11-15T14:10:34;705.90;;;638.47;;
56507;SDS011;42403;53.160;6.368;2022-11-15T14:13:01;694.20;;;627.20;;
56507;SDS011;42403;53.160;6.368;2022-11-15T14:17:54;697.00;;;630.00;;
56507;SDS011;42403;53.160;6.368;2022-11-15T14:22:58;689.50;;;622.60;;
56507;SDS011;42403;53.160;6.368;2022-11-15T14:25:31;689.35;;;622.45;;
56507;SDS011;42403;53.160;6.368;2022-11-15T14:28:10;688.00;;;621.17;;
56507;SDS011;42403;53.160;6.368;2022-11-15T14:30:38;688.28;;;621.28;;
56507;SDS011;42403;53.160;6.368;2022-11-15T14:33:19;685.42;;;618.63;;
56507;SDS011;42403;53.160;6.368;2022-11-15T14:35:45;686.75;;;620.15;;
56507;SDS011;42403;53.160;6.368;2022-11-15T14:38:11;687.17;;;620.38;;
56507;SDS011;42403;53.160;6.368;2022-11-15T14:40:38;678.58;;;611.88;;
56507;SDS011;42403;53.160;6.368;2022-11-15T14:43:04;676.92;;;610.53;;
56507;SDS011;42403;53.160;6.368;2022-11-15T14:45:30;682.05;;;615.25;;
56507;SDS011;42403;53.160;6.368;2022-11-15T14:47:56;677.92;;;611.33;;
56507;SDS011;42403;53.160;6.368;2022-11-15T14:50:22;675.63;;;609.05;;
56507;SDS011;42403;53.160;6.368;2022-11-15T14:52:48;670.50;;;604.28;;
56507;SDS011;42403;53.160;6.368;2022-11-15T14:55:21;668.78;;;602.55;;
56507;SDS011;42403;53.160;6.368;2022-11-15T14:57:48;667.92;;;601.70;;
56507;SDS011;42403;53.160;6.368;2022-11-15T15:00:14;665.80;;;599.63;;
56507;SDS011;42403;53.160;6.368;2022-11-15T15:02:41;661.83;;;595.80;;
56507;SDS011;42403;53.160;6.368;2022-11-15T15:07:37;657.30;;;591.30;;
56507;SDS011;42403;53.160;6.368;2022-11-15T15:10:03;653.70;;;588.00;;
56507;SDS011;42403;53.160;6.368;2022-11-15T15:12:29;652.17;;;586.47;;
56507;SDS011;42403;53.160;6.368;2022-11-15T15:14:55;655.70;;;589.90;;
56507;SDS011;42403;53.160;6.368;2022-11-15T15:17:21;654.60;;;588.70;;
56507;SDS011;42403;53.160;6.368;2022-11-15T15:19:47;653.20;;;587.35;;
56507;SDS011;42403;53.160;6.368;2022-11-15T15:22:15;651.28;;;585.38;;
56507;SDS011;42403;53.160;6.368;2022-11-15T15:24:42;648.72;;;583.03;;
56507;SDS011;42403;53.160;6.368;2022-11-15T15:27:09;652.67;;;586.60;;
56507;SDS011;42403;53.160;6.368;2022-11-15T15:29:35;649.53;;;583.70;;
56507;SDS011;42403;53.160;6.368;2022-11-15T15:32:01;646.22;;;580.60;;
56507;SDS011;42403;53.160;6.368;2022-11-15T15:34:27;650.58;;;584.67;;
56507;SDS011;42403;53.160;6.368;2022-11-15T15:37:12;639.85;;;574.35;;
56507;SDS011;42403;53.160;6.368;2022-11-15T15:39:39;649.78;;;583.88;;
56507;SDS011;42403;53.160;6.368;2022-11-15T15:42:05;648.42;;;582.53;;
56507;SDS011;42403;53.160;6.368;2022-11-15T15:44:31;644.33;;;578.65;;
56507;SDS011;42403;53.160;6.368;2022-11-15T15:46:57;638.73;;;573.23;;
56507;SDS011;42403;53.160;6.368;2022-11-15T15:49:23;640.00;;;574.50;;